Terminal Aerodrome Forecast
Issued by NWS

Current Version | Previous Version | Text Only | Print | Product List | Glossary Off
Versions: 1 2 3 4 5 6 7 8 9 10 11 12 13 14 15 16 17 18 19 20 21 22 23

000
FTUS41 KRLX 240200 AAA
TAFCKB
TAF AMD
KCKB 240247Z 2403/2424 00000KT P6SM BKN050
     FM240500 00000KT P6SM SHRA OVC040
     FM240800 00000KT 5SM SHRA BR OVC025
     FM241300 VRB03KT 6SM SHRA BR OVC035
     FM241500 17005KT P6SM BKN040
     FM241900 17009KT P6SM BKN040
     FM242200 18010G15KT 5SM SHRA BR OVC040
     FM242300 18009KT 2SM SHRA BR VCTS OVC040CB=

USA.gov is the U.S. government's official web portal to all federal, state and local government web resources and services.